Time;durP1;ratioP1;P1;durP2;ratioP2;P2;SDS_P1;SDS_P2;PMS_P1;PMS_P2;Temp;Humidity;BMP_temperature;BMP_pressure;BME280_temperature;BME280_humidity;BME280_pressure;Samples;Min_cycle;Max_cycle;Signal;HPM_P1;HPM_P2
2021/08/19 02:47:34;;;;;;;;;;;16.60;99.90;;;;;;5;36044354;39062248;-91
2021/08/19 02:50:46;;;;;;;;;;;16.60;99.90;;;;;;5;36015473;39016711;-90
2021/08/19 02:53:56;;;;;;;;;;;16.60;99.90;;;;;;5;36016120;39017661;-91
2021/08/19 02:57:10;;;;;;;;;;;16.60;99.90;;;;;;5;36014841;39765263;-91
2021/08/19 03:00:23;;;;;;;;;;;16.60;99.90;;;;;;5;36014009;39016500;-91
2021/08/19 03:03:35;;;;;;;;;;;16.60;99.90;;;;;;5;36014312;39016520;-91
2021/08/19 03:06:45;;;;;;;;;;;16.60;99.90;;;;;;5;36015621;39015958;-91
2021/08/19 03:09:58;;;;;;;;;;;16.50;99.90;;;;;;5;36013540;39016291;-91
2021/08/19 03:13:10;;;;;;;;;;;16.40;99.90;;;;;;5;36014722;39014960;-91
2021/08/19 03:16:23;;;;;;;;;;;16.40;99.90;;;;;;5;36013942;39015953;-90
2021/08/19 03:19:33;;;;;;;;;;;16.40;99.90;;;;;;5;36013188;39017120;-90
2021/08/19 03:22:46;;;;;;;;;;;16.40;99.90;;;;;;5;36014449;39016740;-88
2021/08/19 03:25:59;;;;;;;;;;;16.40;99.90;;;;;;5;36014329;39016822;-88
2021/08/19 03:29:13;;;;;;;;;;;16.40;99.90;;;;;;5;36014627;39764734;-90
2021/08/19 03:32:23;;;;;;;;;;;16.40;99.90;;;;;;5;36013812;39016449;-89
2021/08/19 03:35:36;;;;;;;;;;;16.50;99.90;;;;;;5;36013586;39015342;-88
2021/08/19 03:38:48;;;;;;;;;;;16.50;99.90;;;;;;5;36013617;39015056;-90
2021/08/19 03:42:02;;;;;;;;;;;16.50;99.90;;;;;;5;36013885;39015688;-90
2021/08/19 03:45:11;;;;;;;;;;;16.50;99.90;;;;;;5;36014041;39017057;-89
2021/08/19 03:48:24;;;;;;;;;;;16.50;99.90;;;;;;5;36014065;39016050;-88
2021/08/19 03:51:37;;;;;;;;;;;16.50;99.90;;;;;;5;36013446;39015369;-88
2021/08/19 03:54:50;;;;;;;;;;;16.50;99.90;;;;;;5;36014076;39015930;-87
2021/08/19 03:58:00;;;;;;;;;;;16.50;99.90;;;;;;5;36013694;39017031;-88
2021/08/19 04:01:14;;;;;;;;;;;16.60;99.90;;;;;;5;36013203;39766606;-87
2021/08/19 04:04:27;;;;;;;;;;;16.60;99.90;;;;;;5;36013985;39016321;-88
2021/08/19 04:07:40;;;;;;;;;;;16.60;99.90;;;;;;5;36014997;39015604;-87
2021/08/19 04:10:49;;;;;;;;;;;16.60;99.90;;;;;;5;36013985;39015267;-88
2021/08/19 04:14:02;;;;;;;;;;;16.60;99.90;;;;;;5;36015311;39016216;-85
2021/08/19 04:17:15;;;;;;;;;;;16.70;99.90;;;;;;5;36013898;39017216;-89
2021/08/19 04:20:27;;;;;;;;;;;16.70;99.90;;;;;;5;36015152;39015298;-89
2021/08/19 04:23:41;;;;;;;;;;;16.70;99.90;;;;;;5;36014166;39016060;-89
2021/08/19 04:26:54;;;;;;;;;;;16.70;99.90;;;;;;5;36013183;39015966;-89
2021/08/19 04:30:07;;;;;;;;;;;16.80;99.90;;;;;;5;36014485;39015576;-76
2021/08/19 04:33:26;;;;;;;;;;;16.80;99.90;;;;;;5;36013307;39766398;-75
2021/08/19 04:36:36;;;;;;;;;;;16.80;99.90;;;;;;5;36013990;39017076;-76
2021/08/19 04:39:48;;;;;;;;;;;16.80;99.90;;;;;;5;36013726;39018468;-75
2021/08/19 04:43:01;;;;;;;;;;;16.90;99.90;;;;;;5;36015152;39015770;-75
2021/08/19 04:46:14;;;;;;;;;;;16.90;99.90;;;;;;5;36014217;39016300;-75
2021/08/19 04:49:24;;;;;;;;;;;16.90;99.90;;;;;;5;36014154;39015881;-74
2021/08/19 04:52:36;;;;;;;;;;;16.80;99.90;;;;;;5;36014253;39016397;-74
2021/08/19 04:55:49;;;;;;;;;;;16.80;99.90;;;;;;5;36014808;39015043;-76
2021/08/19 04:59:05;;;;;;;;;;;16.90;99.90;;;;;;5;36014890;39016244;-75
2021/08/19 05:02:15;;;;;;;;;;;16.90;99.90;;;;;;5;36013534;39016013;-82
2021/08/19 05:05:29;;;;;;;;;;;16.80;99.90;;;;;;5;36013487;39766744;-88
2021/08/19 05:08:42;;;;;;;;;;;16.90;99.90;;;;;;5;36013610;39017452;-89
2021/08/19 05:11:54;;;;;;;;;;;16.90;99.90;;;;;;5;36014401;39015410;-87
2021/08/19 05:15:04;;;;;;;;;;;17.00;99.90;;;;;;5;36013981;39016545;-88
2021/08/19 05:18:17;;;;;;;;;;;17.00;99.90;;;;;;5;36013018;39015430;-84
2021/08/19 05:21:30;;;;;;;;;;;17.10;99.90;;;;;;5;36015061;39017094;-86
2021/08/19 05:24:42;;;;;;;;;;;17.10;99.90;;;;;;5;36014290;39017691;-91
2021/08/19 05:27:52;;;;;;;;;;;17.10;99.90;;;;;;5;36014338;39015744;-89
2021/08/19 05:31:05;;;;;;;;;;;17.20;99.90;;;;;;5;36015139;39016800;-90
2021/08/19 05:34:17;;;;;;;;;;;17.30;99.90;;;;;;5;36015097;39017098;-87
2021/08/19 05:37:31;;;;;;;;;;;17.40;99.90;;;;;;5;36014023;39765358;-89
2021/08/19 05:40:41;;;;;;;;;;;17.40;99.90;;;;;;5;36015015;39016453;-88
2021/08/19 05:43:54;;;;;;;;;;;17.30;99.90;;;;;;5;36014941;39016341;-88
2021/08/19 05:47:06;;;;;;;;;;;17.40;99.90;;;;;;5;36013864;39014813;-87
2021/08/19 05:50:19;;;;;;;;;;;17.60;99.90;;;;;;5;36013082;39016109;-88
2021/08/19 05:53:29;;;;;;;;;;;17.80;99.90;;;;;;5;36015942;39015534;-87
2021/08/19 05:56:41;;;;;;;;;;;17.90;99.90;;;;;;5;36014277;39016169;-87
2021/08/19 05:59:54;;;;;;;;;;;18.10;99.90;;;;;;5;36013858;39016407;-88
2021/08/19 06:03:07;;;;;;;;;;;18.30;99.90;;;;;;5;36013634;39017798;-89
2021/08/19 06:06:18;;;;;;;;;;;18.50;99.90;;;;;;5;36014911;39017089;-88
2021/08/19 06:09:32;;;;;;;;;;;18.70;99.90;;;;;;5;36013894;39766745;-88
2021/08/19 06:12:44;;;;;;;;;;;19.00;99.90;;;;;;5;36013869;39015609;-89
2021/08/19 06:15:57;;;;;;;;;;;19.40;99.90;;;;;;5;36013695;39016166;-88
2021/08/19 06:19:07;;;;;;;;;;;19.50;99.10;;;;;;5;36014473;39015632;-89
2021/08/19 06:22:19;;;;;;;;;;;19.70;98.00;;;;;;5;36013615;39016570;-89
2021/08/19 06:25:33;;;;;;;;;;;19.90;96.00;;;;;;5;36013271;39015655;-88
2021/08/19 06:28:45;;;;;;;;;;;20.20;95.30;;;;;;5;36013503;39016936;-89
2021/08/19 06:31:55;;;;;;;;;;;20.50;94.20;;;;;;5;36013871;39015882;-89
2021/08/19 06:35:08;;;;;;;;;;;20.90;93.20;;;;;;5;36014108;39015571;-89
2021/08/19 06:38:21;;;;;;;;;;;21.20;92.40;;;;;;5;36014306;39016706;-89
2021/08/19 06:41:35;;;;;;;;;;;21.60;91.70;;;;;;5;36014783;39765091;-89
2021/08/19 06:44:45;;;;;;;;;;;22.00;90.60;;;;;;5;36014992;39016132;-88
2021/08/19 06:47:57;;;;;;;;;;;22.20;88.40;;;;;;5;36013448;39015686;-90
2021/08/19 06:51:10;;;;;;;;;;;22.10;84.10;;;;;;5;36014461;39015334;-89
2021/08/19 06:54:23;;;;;;;;;;;22.40;85.30;;;;;;5;36015049;39016556;-89
2021/08/19 06:57:32;;;;;;;;;;;22.70;85.00;;;;;;5;36014113;39016521;-88
2021/08/19 07:00:45;;;;;;;;;;;22.90;84.00;;;;;;5;36015160;39016351;-89
2021/08/19 07:03:58;;;;;;;;;;;23.10;83.80;;;;;;5;36013528;39015828;-89
2021/08/19 07:07:10;;;;;;;;;;;23.10;82.00;;;;;;5;36014548;39016984;-88
2021/08/19 07:10:20;;;;;;;;;;;23.10;81.90;;;;;;5;36015059;39015374;-89
2021/08/19 07:13:35;;;;;;;;;;;23.00;81.20;;;;;;5;36014006;39770357;-90
2021/08/19 07:16:47;;;;;;;;;;;22.80;81.50;;;;;;5;36014025;39016064;-89
2021/08/19 07:20:00;;;;;;;;;;;22.70;81.90;;;;;;5;36014489;39015549;-90
2021/08/19 07:23:10;;;;;;;;;;;22.60;82.70;;;;;;5;36014041;39016467;-90
2021/08/19 07:26:23;;;;;;;;;;;22.50;83.40;;;;;;5;36016835;39019250;-89
2021/08/19 07:29:36;;;;;;;;;;;22.20;83.00;;;;;;5;36015173;39016482;-89
2021/08/19 07:32:49;;;;;;;;;;;22.10;84.30;;;;;;5;36014930;39015791;-89
2021/08/19 07:35:59;;;;;;;;;;;22.00;84.00;;;;;;5;36015212;39016222;-89
2021/08/19 07:39:11;;;;;;;;;;;22.00;84.10;;;;;;5;36014974;39017835;-90
2021/08/19 07:42:24;;;;;;;;;;;22.00;85.60;;;;;;5;36019045;39018496;-89
2021/08/19 07:45:38;;;;;;;;;;;22.20;84.30;;;;;;5;36013780;39766722;-90
2021/08/19 07:48:48;;;;;;;;;;;22.50;84.30;;;;;;5;36018554;39017859;-90
2021/08/19 07:52:01;;;;;;;;;;;24.30;79.80;;;;;;5;36014616;39016430;-91
2021/08/19 07:55:13;;;;;;;;;;;26.50;71.50;;;;;;5;36012866;39016081;-91
2021/08/19 07:58:26;;;;;;;;;;;28.80;64.60;;;;;;5;36013424;39015393;-89
2021/08/19 08:01:36;;;;;;;;;;;30.10;58.60;;;;;;5;36014449;39016119;-88
2021/08/19 08:04:48;;;;;;;;;;;29.60;58.50;;;;;;5;36013832;39015928;-90
2021/08/19 08:08:10;;;;;;;;;;;28.80;58.80;;;;;;5;36014528;39015417;-90
2021/08/19 08:11:23;;;;;;;;;;;28.30;59.80;;;;;;5;36013956;39016337;-89
2021/08/19 08:14:33;;;;;;;;;;;29.00;60.10;;;;;;5;36013405;39016554;-90
2021/08/19 08:17:47;;;;;;;;;;;31.40;54.30;;;;;;5;36013660;39765921;-88
2021/08/19 08:21:02;;;;;;;;;;;33.40;51.00;;;;;;5;36014176;39015257;-89
2021/08/19 08:24:14;;;;;;;;;;;35.50;47.80;;;;;;5;36014877;39015567;-91
2021/08/19 08:27:24;;;;;;;;;;;36.10;45.50;;;;;;5;36013501;39016321;-89
2021/08/19 08:30:38;;;;;;;;;;;36.00;44.60;;;;;;5;36013777;39016136;-88
2021/08/19 08:33:51;;;;;;;;;;;35.00;44.90;;;;;;5;36014490;39015777;-88
2021/08/19 08:37:04;;;;;;;;;;;34.90;44.50;;;;;;5;36014104;39016432;-88
2021/08/19 08:40:17;;;;;;;;;;;35.50;44.60;;;;;;5;36014738;39015679;-88
2021/08/19 08:43:30;;;;;;;;;;;35.40;44.00;;;;;;5;36014995;39016740;-90
2021/08/19 08:46:44;;;;;;;;;;;34.90;44.60;;;;;;5;36013127;39017035;-90
2021/08/19 08:49:59;;;;;;;;;;;33.70;45.40;;;;;;5;36013297;39766031;-89
2021/08/19 08:53:09;;;;;;;;;;;34.10;45.80;;;;;;5;36014209;39015275;-88
2021/08/19 08:56:23;;;;;;;;;;;35.80;44.60;;;;;;5;36014348;39016004;-87
2021/08/19 08:59:36;;;;;;;;;;;34.90;44.00;;;;;;5;36014635;39017487;-88
2021/08/19 09:02:49;;;;;;;;;;;32.70;46.60;;;;;;5;36013434;39016227;-88
2021/08/19 09:05:58;;;;;;;;;;;31.40;49.10;;;;;;5;36015366;39015326;-88
2021/08/19 09:09:22;;;;;;;;;;;30.40;50.90;;;;;;5;36014140;39015764;-88
2021/08/19 09:12:38;;;;;;;;;;;31.50;51.30;;;;;;5;36014379;39016468;-88
2021/08/19 09:15:52;;;;;;;;;;;34.70;46.90;;;;;;5;36013064;39016167;-88
2021/08/19 09:19:08;;;;;;;;;;;36.60;43.60;;;;;;5;36013492;39015392;-88
2021/08/19 09:22:22;;;;;;;;;;;39.20;41.60;;;;;;5;36015042;39765720;-88
2021/08/19 09:25:34;;;;;;;;;;;41.00;38.40;;;;;;5;36013204;39016883;-88
2021/08/19 09:28:47;;;;;;;;;;;41.30;37.70;;;;;;5;36013988;39016309;-89
2021/08/19 09:32:16;;;;;;;;;;;41.50;36.20;;;;;;5;36013892;39016483;-88
2021/08/19 09:35:30;;;;;;;;;;;40.70;37.00;;;;;;5;36013483;39017206;-88
2021/08/19 09:38:44;;;;;;;;;;;39.40;37.80;;;;;;5;36013417;39016085;-88
2021/08/19 09:41:56;;;;;;;;;;;37.80;39.60;;;;;;5;36015551;39016671;-88
2021/08/19 09:45:22;;;;;;;;;;;35.60;41.40;;;;;;5;36013853;39015712;-88
2021/08/19 09:48:35;;;;;;;;;;;34.10;43.00;;;;;;5;36013334;39016337;-88
2021/08/19 09:52:03;;;;;;;;;;;32.60;44.00;;;;;;5;36014984;39015086;-87
2021/08/19 09:55:23;;;;;;;;;;;31.90;46.40;;;;;;5;36014045;39765236;-87
2021/08/19 09:58:33;;;;;;;;;;;31.60;47.60;;;;;;5;36014210;39015769;-88
2021/08/19 10:01:49;;;;;;;;;;;31.30;47.70;;;;;;5;36013936;39016192;-87
2021/08/19 10:05:02;;;;;;;;;;;31.50;47.70;;;;;;5;36014089;39016634;-89
2021/08/19 10:08:14;;;;;;;;;;;33.00;45.70;;;;;;5;36013595;39016138;-88
2021/08/19 10:11:25;;;;;;;;;;;33.70;45.40;;;;;;5;36014720;39016926;-87
2021/08/19 10:14:38;;;;;;;;;;;33.40;44.50;;;;;;5;36015167;39016996;-89
2021/08/19 10:17:53;;;;;;;;;;;32.50;45.90;;;;;;5;36014663;39016129;-89
2021/08/19 10:21:11;;;;;;;;;;;31.80;46.40;;;;;;5;36015341;39016072;-89
2021/08/19 10:24:31;;;;;;;;;;;30.60;47.10;;;;;;5;36014207;39016361;-88
2021/08/19 10:27:46;;;;;;;;;;;30.30;49.10;;;;;;5;36015843;39765529;-89
2021/08/19 10:31:03;;;;;;;;;;;29.80;49.40;;;;;;5;36013357;39016269;-88
2021/08/19 10:34:17;;;;;;;;;;;29.30;49.40;;;;;;5;36014679;39015589;-88
2021/08/19 10:37:45;;;;;;;;;;;29.30;49.50;;;;;;5;36013279;39015867;-89
2021/08/19 10:40:58;;;;;;;;;;;29.50;50.40;;;;;;5;36013188;39016540;-88
2021/08/19 10:44:11;;;;;;;;;;;29.60;50.30;;;;;;5;36016792;39017185;-89
2021/08/19 10:47:38;;;;;;;;;;;29.50;48.60;;;;;;5;36013772;39017335;-89
2021/08/19 10:50:49;;;;;;;;;;;29.90;48.10;;;;;;5;36014743;39015689;-88
2021/08/19 10:54:21;;;;;;;;;;;32.30;45.60;;;;;;5;36014304;39016889;-88
2021/08/19 10:57:47;;;;;;;;;;;34.00;44.00;;;;;;5;36013393;39016271;-89
2021/08/19 11:01:13;;;;;;;;;;;35.80;40.60;;;;;;5;36015458;39766293;-91
2021/08/19 11:04:41;;;;;;;;;;;37.60;39.70;;;;;;5;36013466;39016208;-91
2021/08/19 11:07:54;;;;;;;;;;;38.60;36.30;;;;;;5;36013251;39015528;-90
2021/08/19 11:11:08;;;;;;;;;;;38.30;36.80;;;;;;5;36014558;39017536;-90
2021/08/19 11:14:20;;;;;;;;;;;38.40;37.80;;;;;;5;36014312;39015889;-92
2021/08/19 11:17:30;;;;;;;;;;;38.70;35.60;;;;;;5;36014299;39015740;-89
2021/08/19 11:20:46;;;;;;;;;;;39.10;35.80;;;;;;5;36012989;39016174;-89
2021/08/19 11:23:59;;;;;;;;;;;38.50;35.40;;;;;;5;36013503;39017919;-88
2021/08/19 11:27:12;;;;;;;;;;;37.30;36.30;;;;;;5;36013864;39015618;-89
2021/08/19 11:30:29;;;;;;;;;;;35.40;38.40;;;;;;5;36014302;39015815;-89
2021/08/19 11:33:44;;;;;;;;;;;33.80;40.60;;;;;;5;36014644;39765423;-88
2021/08/19 11:36:57;;;;;;;;;;;32.80;43.10;;;;;;5;36013575;39015331;-87
2021/08/19 11:40:10;;;;;;;;;;;31.70;44.00;;;;;;5;36014745;39016902;-88
2021/08/19 11:43:22;;;;;;;;;;;30.80;45.50;;;;;;5;36014264;39015983;-88
2021/08/19 11:46:35;;;;;;;;;;;30.00;47.30;;;;;;5;36015307;39016336;-88
2021/08/19 11:49:53;;;;;;;;;;;29.10;48.60;;;;;;5;36014383;39016278;-89
2021/08/19 11:53:48;;;;;;;;;;;28.60;49.30;;;;;;5;36013521;39016829;-90
2021/08/19 11:56:58;;;;;;;;;;;28.30;49.00;;;;;;5;36013531;39016306;-89
2021/08/19 12:00:15;;;;;;;;;;;27.90;50.10;;;;;;5;36013995;39015824;-89
2021/08/19 12:03:28;;;;;;;;;;;27.70;50.50;;;;;;5;36014608;39015358;-89
2021/08/19 12:06:42;;;;;;;;;;;27.70;50.60;;;;;;5;36013803;39765953;-90
2021/08/19 12:09:51;;;;;;;;;;;27.80;50.50;;;;;;5;36013922;39015936;-89
2021/08/19 12:13:04;;;;;;;;;;;28.10;48.60;;;;;;5;36014622;39016213;-89
2021/08/19 12:16:25;;;;;;;;;;;28.50;47.80;;;;;;5;36013794;39017615;-88
2021/08/19 12:19:38;;;;;;;;;;;28.60;47.60;;;;;;5;36013614;39016388;-89
2021/08/19 12:22:47;;;;;;;;;;;28.10;48.50;;;;;;5;36013613;39017885;-89
2021/08/19 12:26:10;;;;;;;;;;;27.70;47.80;;;;;;5;36014365;39017176;-90
2021/08/19 12:29:22;;;;;;;;;;;26.90;49.80;;;;;;5;36014034;39015971;-89
2021/08/19 12:32:36;;;;;;;;;;;26.80;51.40;;;;;;5;36013581;39015979;-89
2021/08/19 12:35:46;;;;;;;;;;;26.80;52.50;;;;;;5;36014350;39015438;-89
2021/08/19 12:39:14;;;;;;;;;;;26.80;51.60;;;;;;5;36013172;39766805;-89
2021/08/19 12:42:31;;;;;;;;;;;26.50;50.90;;;;;;5;36013911;39014991;-90
2021/08/19 12:45:45;;;;;;;;;;;26.20;52.10;;;;;;5;36014632;39015590;-89
2021/08/19 12:48:55;;;;;;;;;;;26.30;53.10;;;;;;5;36014678;39015783;-89
2021/08/19 12:52:14;;;;;;;;;;;26.40;52.80;;;;;;5;36013172;39015490;-89
2021/08/19 12:55:26;;;;;;;;;;;26.50;53.10;;;;;;5;36013798;39016219;-90
2021/08/19 12:58:39;;;;;;;;;;;26.50;52.30;;;;;;5;36013097;39016220;-89
2021/08/19 13:01:49;;;;;;;;;;;26.80;52.70;;;;;;5;36013765;39015566;-89
2021/08/19 13:05:01;;;;;;;;;;;27.30;53.30;;;;;;5;36014189;39015915;-89
2021/08/19 13:08:14;;;;;;;;;;;27.80;50.40;;;;;;5;36013722;39016155;-90
2021/08/19 13:11:28;;;;;;;;;;;28.00;49.10;;;;;;5;36014554;39765072;-90
2021/08/19 13:14:38;;;;;;;;;;;27.90;48.80;;;;;;5;36015203;39015986;-90
2021/08/19 13:17:51;;;;;;;;;;;27.70;48.90;;;;;;5;36015046;39017069;-90
2021/08/19 13:21:03;;;;;;;;;;;27.60;49.20;;;;;;5;36014155;39016355;-90
2021/08/19 13:24:16;;;;;;;;;;;27.50;48.50;;;;;;5;36013777;39016554;-89
2021/08/19 13:27:26;;;;;;;;;;;27.30;49.30;;;;;;5;36015479;39016948;-88
2021/08/19 13:30:39;;;;;;;;;;;27.30;48.60;;;;;;5;36015054;39016658;-89
2021/08/19 13:33:51;;;;;;;;;;;27.40;50.30;;;;;;5;36014975;39016261;-89
2021/08/19 13:37:04;;;;;;;;;;;27.20;50.20;;;;;;5;36014192;39016153;-88
2021/08/19 13:40:14;;;;;;;;;;;27.20;50.00;;;;;;5;36014892;39015899;-89
2021/08/19 13:43:28;;;;;;;;;;;27.10;49.30;;;;;;5;36014513;39765234;-88
2021/08/19 13:46:41;;;;;;;;;;;27.30;49.80;;;;;;5;36014713;39015827;-88
2021/08/19 13:49:54;;;;;;;;;;;28.30;49.20;;;;;;5;36014376;39015510;-88
2021/08/19 13:53:03;;;;;;;;;;;29.30;48.40;;;;;;5;36014067;39016617;-89
2021/08/19 13:56:16;;;;;;;;;;;30.30;46.00;;;;;;5;36013539;39015484;-88
2021/08/19 13:59:29;;;;;;;;;;;31.50;44.10;;;;;;5;36013385;39016618;-87
2021/08/19 14:02:42;;;;;;;;;;;32.30;42.30;;;;;;5;36013564;39016451;-88
2021/08/19 14:05:51;;;;;;;;;;;33.00;41.80;;;;;;5;36013910;39015940;-88
2021/08/19 14:09:04;;;;;;;;;;;33.50;41.50;;;;;;5;36013808;39016448;-88
2021/08/19 14:12:17;;;;;;;;;;;33.90;42.00;;;;;;5;36013973;39015671;-88
2021/08/19 14:15:31;;;;;;;;;;;34.30;40.00;;;;;;5;36013945;39767761;-88
2021/08/19 14:18:42;;;;;;;;;;;34.50;40.30;;;;;;5;36014993;39015680;-89
2021/08/19 14:21:54;;;;;;;;;;;34.60;40.10;;;;;;5;36013019;39015938;-88
2021/08/19 14:25:07;;;;;;;;;;;34.70;38.80;;;;;;5;36013587;39016797;-88
2021/08/19 14:28:20;;;;;;;;;;;34.20;40.00;;;;;;5;36013403;39016748;-88
2021/08/19 14:31:29;;;;;;;;;;;33.60;40.90;;;;;;5;36014127;39016127;-88
2021/08/19 14:34:42;;;;;;;;;;;33.20;41.30;;;;;;5;36013921;39016802;-88
2021/08/19 14:37:55;;;;;;;;;;;33.00;41.40;;;;;;5;36014040;39015698;-86
2021/08/19 14:41:08;;;;;;;;;;;33.20;42.60;;;;;;5;36013823;39016090;-86
2021/08/19 14:44:17;;;;;;;;;;;32.80;42.40;;;;;;5;36013607;39017331;-86
2021/08/19 14:47:31;;;;;;;;;;;32.20;42.00;;;;;;5;36013355;39766603;-86
2021/08/19 14:50:44;;;;;;;;;;;31.40;43.10;;;;;;5;36014257;39015378;-86
2021/08/19 14:53:57;;;;;;;;;;;30.50;44.40;;;;;;5;36014706;39016096;-87
2021/08/19 14:57:07;;;;;;;;;;;29.80;47.00;;;;;;5;36013445;39016087;-86
2021/08/19 15:00:19;;;;;;;;;;;29.00;46.70;;;;;;5;36014155;39015882;-86
2021/08/19 15:03:32;;;;;;;;;;;28.40;48.20;;;;;;5;36014230;39014992;-86
2021/08/19 15:06:45;;;;;;;;;;;28.00;48.10;;;;;;5;36013079;39014547;-86
2021/08/19 15:09:55;;;;;;;;;;;27.70;49.90;;;;;;5;36013357;39015271;-86
2021/08/19 15:13:07;;;;;;;;;;;27.40;50.50;;;;;;5;36013246;39017622;-87
2021/08/19 15:16:20;;;;;;;;;;;27.10;51.30;;;;;;5;36013214;39016087;-87
2021/08/19 15:19:35;;;;;;;;;;;26.80;51.80;;;;;;5;36013876;39765834;-86
2021/08/19 15:22:45;;;;;;;;;;;26.40;52.40;;;;;;5;36013770;39015923;-87
2021/08/19 15:25:58;;;;;;;;;;;26.20;52.40;;;;;;5;36014449;39017302;-89
2021/08/19 15:29:11;;;;;;;;;;;26.00;53.60;;;;;;5;36012888;39018787;-89
2021/08/19 15:32:24;;;;;;;;;;;25.70;53.60;;;;;;5;36014375;39017237;-89
2021/08/19 15:35:33;;;;;;;;;;;25.50;54.40;;;;;;5;36014771;39015842;-92
2021/08/19 15:38:46;;;;;;;;;;;25.40;54.60;;;;;;5;36013090;39015508;-88
2021/08/19 15:41:59;;;;;;;;;;;25.20;54.20;;;;;;5;36015281;39016850;-89
2021/08/19 15:45:12;;;;;;;;;;;25.00;55.60;;;;;;5;36012884;39018195;-89
2021/08/19 15:48:21;;;;;;;;;;;24.80;55.20;;;;;;5;36014582;39015525;-88
2021/08/19 15:51:36;;;;;;;;;;;24.70;55.80;;;;;;5;36014018;39765477;-88
2021/08/19 15:54:49;;;;;;;;;;;24.70;56.70;;;;;;5;36013355;39018431;-90
2021/08/19 15:58:02;;;;;;;;;;;24.80;57.20;;;;;;5;36014448;39017160;-89
2021/08/19 16:01:11;;;;;;;;;;;24.90;56.40;;;;;;5;36014597;39017075;-88
2021/08/19 16:04:24;;;;;;;;;;;25.00;55.90;;;;;;5;36012755;39016321;-89
2021/08/19 16:07:37;;;;;;;;;;;25.10;54.10;;;;;;5;36012929;39018751;-88
2021/08/19 16:10:49;;;;;;;;;;;25.30;54.70;;;;;;5;36014620;39016289;-89
2021/08/19 16:13:59;;;;;;;;;;;25.40;54.20;;;;;;5;36013530;39016000;-88
2021/08/19 16:17:12;;;;;;;;;;;25.60;54.90;;;;;;5;36014746;39016503;-88
2021/08/19 16:20:24;;;;;;;;;;;25.70;54.40;;;;;;5;36013903;39015660;-90
2021/08/19 16:23:39;;;;;;;;;;;25.60;52.40;;;;;;5;36014865;39766180;-90
2021/08/19 16:26:48;;;;;;;;;;;25.40;54.30;;;;;;5;36013288;39017551;-89
2021/08/19 16:30:01;;;;;;;;;;;25.40;54.60;;;;;;5;36014946;39015689;-89
2021/08/19 16:33:14;;;;;;;;;;;25.20;54.60;;;;;;5;36016410;39017462;-89
2021/08/19 16:36:30;;;;;;;;;;;25.10;54.50;;;;;;5;36014008;39015340;-87
2021/08/19 16:39:39;;;;;;;;;;;25.00;55.30;;;;;;5;36013052;39016440;-87
2021/08/19 16:42:52;;;;;;;;;;;24.80;56.60;;;;;;5;36013755;39017783;-86
2021/08/19 16:46:05;;;;;;;;;;;24.70;56.60;;;;;;5;36013267;39015593;-88
2021/08/19 16:49:18;;;;;;;;;;;24.50;57.40;;;;;;5;36014019;39016545;-87
2021/08/19 16:52:28;;;;;;;;;;;24.40;57.00;;;;;;5;36013650;39016672;-87
2021/08/19 16:55:42;;;;;;;;;;;24.20;57.60;;;;;;5;36014877;39766480;-88
2021/08/19 16:58:55;;;;;;;;;;;24.10;57.90;;;;;;5;36013867;39016230;-89
2021/08/19 17:02:07;;;;;;;;;;;24.00;58.50;;;;;;5;36014749;39017193;-88
2021/08/19 17:05:17;;;;;;;;;;;24.00;59.10;;;;;;5;36014138;39016874;-90
2021/08/19 17:08:30;;;;;;;;;;;23.80;59.50;;;;;;5;36013856;39016297;-90
2021/08/19 17:11:42;;;;;;;;;;;23.80;59.40;;;;;;5;36013510;39016478;-88
2021/08/19 17:14:55;;;;;;;;;;;23.70;59.60;;;;;;5;36014630;39015572;-92
2021/08/19 17:18:05;;;;;;;;;;;23.70;59.30;;;;;;5;36013427;39015806;-87
2021/08/19 17:21:17;;;;;;;;;;;23.70;59.60;;;;;;5;36014182;39017224;-89
2021/08/19 17:24:30;;;;;;;;;;;23.60;59.80;;;;;;5;36013818;39015431;-92
2021/08/19 17:27:44;;;;;;;;;;;23.60;59.30;;;;;;5;36012922;39765626;-94
2021/08/19 17:30:54;;;;;;;;;;;23.50;59.50;;;;;;5;36014492;39016303;-87
2021/08/19 17:34:07;;;;;;;;;;;23.40;59.80;;;;;;5;36014016;39017546;-86
2021/08/19 17:37:19;;;;;;;;;;;23.30;60.20;;;;;;5;36013498;39016732;-86
2021/08/19 17:40:32;;;;;;;;;;;23.20;60.60;;;;;;5;36013998;39015093;-87
2021/08/19 17:43:42;;;;;;;;;;;23.10;61.50;;;;;;5;36014206;39016462;-88
2021/08/19 17:46:54;;;;;;;;;;;23.00;61.90;;;;;;5;36014483;39015606;-88
2021/08/19 17:50:07;;;;;;;;;;;22.90;62.20;;;;;;5;36014134;39016290;-87
2021/08/19 17:53:20;;;;;;;;;;;22.80;63.50;;;;;;5;36013093;39015833;-87
2021/08/19 17:56:30;;;;;;;;;;;22.60;65.70;;;;;;5;36015307;39016120;-88
2021/08/19 17:59:45;;;;;;;;;;;22.30;66.90;;;;;;5;36014113;39765494;-87
2021/08/19 18:03:00;;;;;;;;;;;22.10;67.90;;;;;;5;36013431;39015871;-86
2021/08/19 18:06:16;;;;;;;;;;;21.90;68.60;;;;;;5;36014341;39015631;-89
2021/08/19 18:09:26;;;;;;;;;;;21.70;69.30;;;;;;5;36013379;39016310;-89
2021/08/19 18:12:39;;;;;;;;;;;21.60;69.70;;;;;;5;36013629;39015871;-88
2021/08/19 18:15:51;;;;;;;;;;;21.50;68.90;;;;;;5;36012966;39015465;-88
2021/08/19 18:19:04;;;;;;;;;;;21.40;70.50;;;;;;5;36013478;39016976;-87
2021/08/19 18:22:14;;;;;;;;;;;21.40;69.70;;;;;;5;36014290;39015527;-88
2021/08/19 18:25:28;;;;;;;;;;;21.30;72.30;;;;;;5;36013818;39016651;-88
2021/08/19 18:28:41;;;;;;;;;;;21.20;71.80;;;;;;5;36014017;39016197;-89
2021/08/19 18:31:55;;;;;;;;;;;21.20;72.50;;;;;;5;36013832;39765986;-89
2021/08/19 18:35:05;;;;;;;;;;;21.10;71.40;;;;;;5;36015382;39016817;-88
2021/08/19 18:38:18;;;;;;;;;;;21.10;71.80;;;;;;5;36013857;39015784;-88
2021/08/19 18:41:32;;;;;;;;;;;21.00;72.20;;;;;;5;36013995;39016362;-88
2021/08/19 18:44:44;;;;;;;;;;;20.90;74.00;;;;;;5;36014116;39016052;-88
2021/08/19 18:47:54;;;;;;;;;;;20.80;74.50;;;;;;5;36013314;39016201;-87
2021/08/19 18:51:07;;;;;;;;;;;20.70;73.50;;;;;;5;36014557;39016509;-87
2021/08/19 18:54:20;;;;;;;;;;;20.70;74.20;;;;;;5;36015854;39015457;-87
2021/08/19 18:57:33;;;;;;;;;;;20.60;75.60;;;;;;5;36014110;39015198;-88
2021/08/19 19:00:44;;;;;;;;;;;20.50;75.40;;;;;;5;36014037;39016403;-89
2021/08/19 19:03:58;;;;;;;;;;;20.40;74.80;;;;;;5;36013811;39765500;-89
2021/08/19 19:07:11;;;;;;;;;;;20.40;76.70;;;;;;5;36013499;39016188;-88
2021/08/19 19:10:24;;;;;;;;;;;20.30;77.50;;;;;;5;36014086;39016223;-88
2021/08/19 19:13:33;;;;;;;;;;;20.20;78.40;;;;;;5;36014646;39016097;-88
2021/08/19 19:16:46;;;;;;;;;;;20.10;78.30;;;;;;5;36013693;39016972;-88
2021/08/19 19:19:59;;;;;;;;;;;20.10;78.70;;;;;;5;36013260;39016679;-90
2021/08/19 19:23:12;;;;;;;;;;;20.00;80.20;;;;;;5;36013978;39015472;-88
2021/08/19 19:26:22;;;;;;;;;;;20.00;80.20;;;;;;5;36015057;39016298;-89
2021/08/19 19:29:34;;;;;;;;;;;20.00;80.40;;;;;;5;36013504;39015932;-88
2021/08/19 19:32:47;;;;;;;;;;;19.90;80.50;;;;;;5;36013681;39015142;-88
2021/08/19 19:36:01;;;;;;;;;;;19.80;82.40;;;;;;5;36014715;39765555;-88
2021/08/19 19:39:11;;;;;;;;;;;19.80;82.20;;;;;;5;36013196;39016145;-88
2021/08/19 19:42:24;;;;;;;;;;;19.70;82.30;;;;;;5;36014028;39016174;-87
2021/08/19 19:45:36;;;;;;;;;;;19.70;83.40;;;;;;5;36014299;39015907;-88
2021/08/19 19:48:50;;;;;;;;;;;19.70;83.50;;;;;;5;36013435;39016225;-87
2021/08/19 19:52:01;;;;;;;;;;;19.70;84.10;;;;;;5;36014852;39016075;-87
2021/08/19 19:55:14;;;;;;;;;;;19.60;83.90;;;;;;5;36013611;39015308;-86
2021/08/19 19:58:26;;;;;;;;;;;19.50;84.60;;;;;;5;36015096;39017126;-88
2021/08/19 20:01:39;;;;;;;;;;;19.50;85.40;;;;;;5;36014418;39015213;-88
2021/08/19 20:04:50;;;;;;;;;;;19.40;85.40;;;;;;5;36013540;39016212;-89
2021/08/19 20:08:04;;;;;;;;;;;19.40;86.00;;;;;;5;36013735;39765902;-88
2021/08/19 20:11:17;;;;;;;;;;;19.30;86.10;;;;;;5;36015093;39015272;-87
2021/08/19 20:14:29;;;;;;;;;;;19.30;87.00;;;;;;5;36014465;39015611;-88
2021/08/19 20:17:39;;;;;;;;;;;19.20;88.00;;;;;;5;36013738;39017018;-88
2021/08/19 20:20:52;;;;;;;;;;;19.20;88.10;;;;;;5;36016403;39017071;-87
2021/08/19 20:24:04;;;;;;;;;;;19.20;89.20;;;;;;5;36014816;39015412;-87
2021/08/19 20:27:17;;;;;;;;;;;19.10;89.00;;;;;;5;36014613;39015832;-88
2021/08/19 20:30:28;;;;;;;;;;;19.00;88.50;;;;;;5;36015515;39016659;-87
2021/08/19 20:33:41;;;;;;;;;;;18.90;89.80;;;;;;5;36013097;39016867;-88
2021/08/19 20:36:53;;;;;;;;;;;18.80;90.70;;;;;;5;36014909;39016156;-92
2021/08/19 20:40:08;;;;;;;;;;;18.80;90.80;;;;;;5;36014376;39765028;-93
2021/08/19 20:43:18;;;;;;;;;;;18.60;91.20;;;;;;5;36014636;39015673;-92